Terminal Aerodrome Forecast
Issued by NWS Amarillo, TX

Home | Current Version | Previous Version | Text Only | Print | Product List | Glossary On
Versions: 1 2 3 4 5 6 7 8 9 10 11 12 13 14 15 16
000
FTUS44 KAMA 072338
TAFDHT
TAF
KDHT 072338Z 0800/0824 04014G22KT P6SM OVC025
      TEMPO 0802/0804 03015KT P6SM OVC015
     FM080400 03015KT P6SM OVC010
     FM080800 03011KT P6SM SCT010 BKN060=

USA.gov is the U.S. government's official web portal to all federal, state and local government web resources and services.